Time;durP1;ratioP1;P1;durP2;ratioP2;P2;SDS_P1;SDS_P2;PMS_P1;PMS_P2;Temp;Humidity;BMP_temperature;BMP_pressure;BME280_temperature;BME280_humidity;BME280_pressure;Samples;Min_cycle;Max_cycle;Signal;HPM_P1;HPM_P2
2023/11/10 00:00:38;;;;;;;11.20;4.80;;;;;;;6.77;64.73;100951.85;105094;1257;63786;-56
2023/11/10 00:03:05;;;;;;;13.60;6.30;;;;;;;6.80;64.79;100956.73;105280;1262;60236;-55
2023/11/10 00:05:35;;;;;;;19.00;15.30;;;;;;;6.81;64.84;100956.70;105729;1262;59818;-57
2023/11/10 00:08:05;;;;;;;13.10;7.40;;;;;;;6.78;64.97;100958.05;105697;1257;62840;-56
2023/11/10 00:10:33;;;;;;;11.80;5.60;;;;;;;6.75;64.94;100958.80;105790;1262;60092;-57
2023/11/10 00:13:01;;;;;;;11.70;5.10;;;;;;;6.72;64.85;100959.64;105747;1259;63820;-55
2023/11/10 00:15:28;;;;;;;9.60;5.20;;;;;;;6.68;64.86;100962.48;105113;1258;59754;-56
2023/11/10 00:17:56;;;;;;;14.00;6.90;;;;;;;6.63;64.75;100964.12;105135;1263;59675;-55
2023/11/10 00:20:25;;;;;;;16.00;7.80;;;;;;;6.57;64.76;100961.66;106005;1260;63125;-55
2023/11/10 00:22:52;;;;;;;12.20;6.00;;;;;;;6.51;64.89;100959.35;105914;1261;60217;-55
2023/11/10 00:25:20;;;;;;;12.90;5.80;;;;;;;6.45;65.01;100961.58;105101;1262;63765;-57
2023/11/10 00:27:48;;;;;;;9.60;5.50;;;;;;;6.39;64.95;100964.71;106430;1261;59983;-58
2023/11/10 00:30:17;;;;;;;12.70;6.80;;;;;;;6.31;64.92;100966.70;105423;1263;59636;-56
2023/11/10 00:32:45;;;;;;;10.20;5.70;;;;;;;6.25;64.90;100964.56;106318;1256;62831;-56
2023/11/10 00:35:13;;;;;;;12.40;5.40;;;;;;;6.25;64.76;100966.84;105833;1259;60321;-56
2023/11/10 00:37:40;;;;;;;12.50;5.00;;;;;;;6.28;64.57;100964.39;105075;1262;64122;-57
2023/11/10 00:40:08;;;;;;;8.80;4.20;;;;;;;6.30;64.46;100970.06;105401;1261;59769;-54
2023/11/10 00:42:36;;;;;;;20.30;14.20;;;;;;;6.32;64.51;100969.26;105467;1262;60380;-55
2023/11/10 00:45:04;;;;;;;9.10;5.00;;;;;;;6.37;64.61;100971.13;105811;1260;64073;-58
2023/11/10 00:47:32;;;;;;;11.40;5.80;;;;;;;6.39;64.64;100970.98;105862;1262;61439;-55
2023/11/10 00:50:00;;;;;;;10.70;5.90;;;;;;;6.40;64.58;100970.59;105222;1262;62481;-56
2023/11/10 00:52:28;;;;;;;12.30;5.90;;;;;;;6.37;64.38;100971.10;105092;1261;59631;-55
2023/11/10 00:54:56;;;;;;;10.10;5.00;;;;;;;6.33;64.34;100969.21;105178;1261;59635;-55
2023/11/10 00:57:24;;;;;;;13.90;5.70;;;;;;;6.29;64.32;100972.73;105751;1263;64063;-56
2023/11/10 00:59:52;;;;;;;13.50;6.50;;;;;;;6.24;64.23;100966.56;105186;1262;60144;-52
2023/11/10 01:02:20;;;;;;;11.20;5.10;;;;;;;6.17;64.18;100962.75;105250;1257;63740;-55
2023/11/10 01:04:47;;;;;;;12.40;5.60;;;;;;;6.11;64.26;100960.10;105234;1262;59631;-55
2023/11/10 01:07:15;;;;;;;13.10;5.40;;;;;;;6.06;64.35;100962.45;105589;1256;59807;-55
2023/11/10 01:09:44;;;;;;;13.80;5.60;;;;;;;6.02;64.38;100959.48;105119;1263;62948;-56
2023/11/10 01:12:12;;;;;;;12.60;5.30;;;;;;;5.98;64.38;100962.83;105411;1261;60495;-55
2023/11/10 01:14:39;;;;;;;11.00;4.60;;;;;;;5.94;64.36;100962.16;105178;1263;62550;-56
2023/11/10 01:17:07;;;;;;;8.10;3.70;;;;;;;5.94;64.30;100961.61;105158;1262;59533;-55
2023/11/10 01:19:36;;;;;;;11.50;4.20;;;;;;;5.98;64.11;100958.33;105868;1259;60903;-56
2023/11/10 01:22:04;;;;;;;9.10;4.00;;;;;;;6.01;64.10;100956.95;105686;1263;62935;-55
2023/11/10 01:24:32;;;;;;;11.00;5.50;;;;;;;6.03;64.20;100961.38;105089;1263;61408;-55
2023/11/10 01:26:59;;;;;;;9.30;3.40;;;;;;;6.05;64.14;100961.23;106253;1260;62481;-55
2023/11/10 01:29:27;;;;;;;10.40;4.80;;;;;;;6.07;64.06;100961.66;105072;1262;59500;-55
2023/11/10 01:31:55;;;;;;;11.60;5.20;;;;;;;6.07;64.13;100960.46;105221;1260;59656;-55
2023/11/10 01:34:22;;;;;;;11.80;6.00;;;;;;;6.04;64.29;100959.38;105658;1262;64102;-55
2023/11/10 01:36:50;;;;;;;18.60;15.00;;;;;;;6.04;64.29;100958.71;105468;1256;61819;-55
2023/11/10 01:39:18;;;;;;;12.20;5.60;;;;;;;6.02;64.27;100956.71;105637;1253;63703;-55
2023/11/10 01:41:45;;;;;;;11.90;4.50;;;;;;;5.98;64.31;100951.73;105469;1260;59649;-55
2023/11/10 01:44:13;;;;;;;12.80;5.20;;;;;;;5.91;64.20;100959.16;105557;1254;59684;-55
2023/11/10 01:46:46;;;;;;;13.20;6.10;;;;;;;5.85;64.28;100955.79;105533;1254;64183;-55
2023/11/10 01:49:16;;;;;;;13.20;5.00;;;;;;;5.80;64.38;100959.55;105801;1256;70212;-55
2023/11/10 01:51:44;;;;;;;11.30;5.40;;;;;;;5.76;64.55;100962.70;107049;1254;65250;-57
2023/11/10 01:54:14;;;;;;;13.80;5.10;;;;;;;5.73;64.53;100961.66;105699;1255;59699;-56
2023/11/10 01:56:42;;;;;;;11.10;5.50;;;;;;;5.67;64.53;100962.61;106317;1253;59629;-55
2023/11/10 01:59:12;;;;;;;9.80;5.20;;;;;;;5.61;64.52;100962.60;105776;1253;62927;-55
2023/11/10 02:01:40;;;;;;;9.10;4.20;;;;;;;5.59;64.45;100963.88;106475;1259;60337;-56
2023/11/10 02:04:11;;;;;;;9.30;4.40;;;;;;;5.63;64.40;100965.48;106255;1254;62505;-56
2023/11/10 02:06:40;;;;;;;10.20;3.00;;;;;;;5.68;64.39;100966.77;105850;1258;59763;-56
2023/11/10 02:09:08;;;;;;;9.70;4.50;;;;;;;5.73;64.45;100968.44;105861;1257;59699;-58
2023/11/10 02:11:38;;;;;;;9.00;3.50;;;;;;;5.79;64.52;100968.65;105432;1259;64182;-55
2023/11/10 02:14:10;;;;;;;10.40;5.00;;;;;;;5.84;64.55;100969.80;105779;1259;60078;-54
2023/11/10 02:16:38;;;;;;;11.50;5.20;;;;;;;5.85;64.51;100967.48;106340;1257;63777;-54
2023/11/10 02:19:06;;;;;;;10.50;5.10;;;;;;;5.85;64.63;100964.01;107116;1254;60556;-56
2023/11/10 02:21:34;;;;;;;11.80;5.70;;;;;;;5.86;64.74;100965.89;105911;1254;60530;-55
2023/11/10 02:24:06;;;;;;;12.30;6.20;;;;;;;5.86;64.75;100968.31;105816;1258;64998;-55
2023/11/10 02:26:34;;;;;;;15.00;7.20;;;;;;;5.82;64.70;100963.26;105907;1259;61761;-55
2023/11/10 02:29:02;;;;;;;14.00;5.50;;;;;;;5.78;64.70;100960.34;106300;1252;62579;-57
2023/11/10 02:31:30;;;;;;;10.80;5.70;;;;;;;5.74;64.73;100961.41;105423;1259;60907;-55
2023/11/10 02:33:58;;;;;;;12.90;6.20;;;;;;;5.69;64.85;100962.91;106102;1256;60431;-57
2023/11/10 02:36:29;;;;;;;13.10;5.60;;;;;;;5.63;64.92;100961.44;105498;1251;63680;-57
2023/11/10 02:38:56;;;;;;;11.40;5.40;;;;;;;5.58;65.07;100963.08;106253;1254;61401;-58
2023/11/10 02:41:24;;;;;;;15.00;6.10;;;;;;;5.54;65.18;100966.24;105366;1266;62527;-58
2023/11/10 02:43:52;;;;;;;13.80;5.50;;;;;;;5.49;65.29;100962.98;105803;1254;60521;-58
2023/11/10 02:46:19;;;;;;;8.50;3.20;;;;;;;5.52;65.34;100960.27;106056;1258;60408;-58
2023/11/10 02:48:47;;;;;;;12.20;5.70;;;;;;;5.60;65.21;100958.31;106115;1254;72585;-57
2023/11/10 02:51:15;;;;;;;11.20;5.00;;;;;;;5.66;65.35;100958.52;105538;1254;61525;-59
2023/11/10 02:53:42;;;;;;;13.10;4.30;;;;;;;5.71;65.38;100957.73;105989;1254;62516;-58
2023/11/10 02:56:10;;;;;;;10.90;5.00;;;;;;;5.76;65.41;100959.06;105479;1257;60469;-58
2023/11/10 02:58:38;;;;;;;16.90;6.60;;;;;;;5.84;65.57;100958.50;106013;1257;60428;-57
2023/11/10 03:01:06;;;;;;;9.30;4.40;;;;;;;5.90;65.53;100959.02;105460;1251;63709;-55
2023/11/10 03:03:33;;;;;;;12.00;5.30;;;;;;;5.93;65.54;100961.50;105994;1254;60438;-57
2023/11/10 03:06:01;;;;;;;10.60;6.20;;;;;;;5.93;65.63;100962.53;106830;1254;62529;-58
2023/11/10 03:08:29;;;;;;;10.10;5.20;;;;;;;5.91;65.62;100960.20;105511;1254;60450;-57
2023/11/10 03:10:57;;;;;;;10.10;4.70;;;;;;;5.89;65.47;100963.64;105522;1257;60533;-57
2023/11/10 03:13:25;;;;;;;12.00;6.10;;;;;;;5.83;65.22;100962.05;105547;1257;64987;-58
2023/11/10 03:15:52;;;;;;;13.00;5.60;;;;;;;5.75;65.19;100965.35;106277;1254;61358;-58
2023/11/10 03:18:20;;;;;;;10.50;5.00;;;;;;;5.70;65.27;100962.85;106337;1251;63689;-58
2023/11/10 03:20:48;;;;;;;11.00;5.30;;;;;;;5.65;65.26;100959.24;106027;1254;60473;-58
2023/11/10 03:23:15;;;;;;;12.40;5.70;;;;;;;5.61;65.33;100958.23;105314;1260;60355;-58
2023/11/10 03:25:43;;;;;;;13.10;5.60;;;;;;;5.56;65.38;100955.88;106347;1254;63699;-57
2023/11/10 03:28:11;;;;;;;17.30;7.30;;;;;;;5.50;65.47;100954.77;105852;1256;63020;-56
2023/11/10 03:30:39;;;;;;;10.70;4.90;;;;;;;5.45;65.50;100948.94;105845;1256;63761;-56
2023/11/10 03:33:07;;;;;;;11.30;4.50;;;;;;;5.44;65.50;100948.46;105874;1254;60556;-54
2023/11/10 03:35:34;;;;;;;9.10;4.40;;;;;;;5.49;65.45;100948.42;105690;1253;60426;-55
2023/11/10 03:38:03;;;;;;;11.50;4.10;;;;;;;5.52;65.44;100944.42;105472;1256;63630;-56
2023/11/10 03:40:32;;;;;;;9.10;3.70;;;;;;;5.58;65.54;100941.52;106075;1253;61417;-56
2023/11/10 03:43:00;;;;;;;11.10;4.20;;;;;;;5.65;65.63;100943.28;105515;1254;63675;-53
2023/11/10 03:45:28;;;;;;;11.80;5.70;;;;;;;5.69;65.70;100944.58;105323;1254;60531;-58
2023/11/10 03:47:55;;;;;;;12.80;5.20;;;;;;;5.72;65.76;100947.41;106166;1251;60358;-53
2023/11/10 03:50:23;;;;;;;11.70;5.20;;;;;;;5.70;65.68;100950.80;105460;1257;63618;-54
2023/11/10 03:52:50;;;;;;;7.50;3.20;;;;;;;5.68;65.47;100948.50;105445;1260;61389;-56
2023/11/10 03:55:18;;;;;;;11.10;5.20;;;;;;;5.65;65.38;100949.84;105705;1257;62464;-58
2023/11/10 03:57:46;;;;;;;15.50;6.50;;;;;;;5.62;65.37;100952.82;105481;1257;60546;-57
2023/11/10 04:00:17;;;;;;;10.60;4.80;;;;;;;5.57;65.43;100958.59;105763;1257;60401;-56
2023/11/10 04:02:45;;;;;;;13.00;4.60;;;;;;;5.54;65.53;100956.66;106146;1254;63658;-56
2023/11/10 04:05:13;;;;;;;11.10;5.20;;;;;;;5.51;65.50;100957.86;105454;1251;61438;-56
2023/11/10 04:07:40;;;;;;;11.90;5.40;;;;;;;5.47;65.46;100957.72;107042;1254;63926;-50
2023/11/10 04:10:10;;;;;;;15.00;5.60;;;;;;;5.42;65.56;100958.45;105494;1255;60544;-56
2023/11/10 04:12:38;;;;;;;16.60;5.40;;;;;;;5.37;65.51;100950.73;105902;1254;60670;-55
2023/11/10 04:15:07;;;;;;;10.90;4.90;;;;;;;5.34;65.58;100957.84;106023;1254;65089;-51
2023/11/10 04:17:34;;;;;;;7.90;3.70;;;;;;;5.34;65.52;100954.67;106740;1254;60340;-56
2023/11/10 04:20:03;;;;;;;9.60;3.40;;;;;;;5.37;65.28;100958.37;106112;1254;62516;-56
2023/11/10 04:22:30;;;;;;;9.60;3.50;;;;;;;5.39;65.13;100957.58;106037;1254;60554;-55
2023/11/10 04:24:58;;;;;;;11.40;4.40;;;;;;;5.40;65.10;100952.62;105394;1257;60391;-55
2023/11/10 04:27:26;;;;;;;8.60;3.60;;;;;;;5.44;65.22;100954.58;105375;1260;63649;-56
2023/11/10 04:29:55;;;;;;;8.80;3.10;;;;;;;5.47;65.30;100954.21;105490;1257;60499;-59
2023/11/10 04:32:23;;;;;;;9.50;4.60;;;;;;;5.53;65.38;100959.88;105852;1254;63790;-56
2023/11/10 04:34:50;;;;;;;10.90;5.40;;;;;;;5.57;65.42;100958.97;106318;1254;60429;-55
2023/11/10 04:37:19;;;;;;;8.90;4.00;;;;;;;5.57;65.50;100959.30;105431;1257;61647;-55
2023/11/10 04:39:46;;;;;;;9.20;3.90;;;;;;;5.58;65.46;100963.79;105306;1255;64902;-52
2023/11/10 04:42:14;;;;;;;11.10;5.00;;;;;;;5.54;65.15;100962.04;109320;1251;60324;-56
2023/11/10 04:44:42;;;;;;;7.60;3.20;;;;;;;5.52;64.95;100964.42;109110;1254;64000;-56
2023/11/10 04:47:10;;;;;;;10.00;4.00;;;;;;;5.49;64.84;100966.17;109332;1254;58204;-56
2023/11/10 04:49:39;;;;;;;12.00;5.30;;;;;;;5.46;64.75;100966.10;109199;1251;58334;-57
2023/11/10 04:52:07;;;;;;;8.10;4.00;;;;;;;5.44;64.72;100970.55;108332;1253;66055;-57
2023/11/10 04:54:35;;;;;;;9.30;5.00;;;;;;;5.44;64.83;100972.16;105352;1257;61793;-56
2023/11/10 04:57:02;;;;;;;12.10;5.10;;;;;;;5.42;64.76;100971.53;105339;1254;63760;-54
2023/11/10 04:59:30;;;;;;;13.40;5.50;;;;;;;5.38;64.62;100976.23;105504;1256;60424;-54
2023/11/10 05:01:58;;;;;;;9.40;3.50;;;;;;;5.31;64.52;100973.08;106109;1256;60432;-56
2023/11/10 05:04:27;;;;;;;8.70;4.10;;;;;;;5.26;64.59;100973.35;105457;1251;64937;-56
2023/11/10 05:06:56;;;;;;;10.30;3.60;;;;;;;5.26;64.53;100974.73;105962;1254;60525;-56
2023/11/10 05:09:23;;;;;;;7.50;3.20;;;;;;;5.30;64.50;100971.74;106499;1251;62483;-58
2023/11/10 05:11:51;;;;;;;7.90;3.30;;;;;;;5.36;64.55;100966.09;105628;1256;60472;-56
2023/11/10 05:14:19;;;;;;;9.40;3.80;;;;;;;5.42;64.62;100961.64;105563;1251;59744;-57
2023/11/10 05:16:47;;;;;;;9.00;3.50;;;;;;;5.49;64.85;100967.55;105617;1256;64874;-55
2023/11/10 05:19:14;;;;;;;8.70;4.10;;;;;;;5.55;64.80;100970.36;105785;1251;62806;-56
2023/11/10 05:21:42;;;;;;;10.00;4.40;;;;;;;5.60;64.82;100973.79;106848;1253;64359;-56
2023/11/10 05:24:12;;;;;;;9.10;3.90;;;;;;;5.64;64.80;100975.17;106186;1256;60387;-56
2023/11/10 05:26:42;;;;;;;9.30;4.00;;;;;;;5.65;64.80;100972.83;105368;1254;60344;-55
2023/11/10 05:29:10;;;;;;;12.00;5.70;;;;;;;5.64;64.73;100975.49;106976;1253;63633;-56
2023/11/10 05:31:39;;;;;;;10.90;5.40;;;;;;;5.63;64.63;100979.02;105428;1254;63960;-61
2023/11/10 05:34:07;;;;;;;9.60;4.50;;;;;;;5.62;64.64;100975.60;105756;1257;62546;-63
2023/11/10 05:36:35;;;;;;;10.70;4.60;;;;;;;5.60;64.68;100980.39;105263;1254;60601;-61
2023/11/10 05:39:04;;;;;;;10.00;4.70;;;;;;;5.57;64.84;100985.73;105956;1254;60368;-63
2023/11/10 05:41:32;;;;;;;17.50;7.30;;;;;;;5.60;65.09;100985.61;106275;1252;65124;-58
2023/11/10 05:44:01;;;;;;;15.30;8.80;;;;;;;5.63;65.12;100988.77;106013;1254;61429;-67
2023/11/10 05:46:29;;;;;;;17.00;6.80;;;;;;;5.68;65.24;100993.02;106169;1255;63681;-67
2023/11/10 05:48:56;;;;;;;12.80;6.60;;;;;;;5.78;65.13;100992.90;105823;1253;60656;-58
2023/11/10 05:51:24;;;;;;;15.70;6.70;;;;;;;5.85;65.08;100991.35;105325;1257;60371;-57
2023/11/10 05:53:52;;;;;;;12.30;5.60;;;;;;;5.93;65.14;100990.27;106523;1257;65394;-64
2023/11/10 05:56:23;;;;;;;9.20;4.20;;;;;;;6.03;65.08;100993.95;109258;1252;61393;-69
2023/11/10 05:58:51;;;;;;;16.50;9.40;;;;;;;6.12;64.99;100991.55;107042;1253;63730;-67
2023/11/10 06:01:25;;;;;;;16.60;9.50;;;;;;;6.20;65.01;100990.44;106159;1254;61178;-57
2023/11/10 06:03:53;;;;;;;21.20;9.40;;;;;;;6.27;64.94;100988.02;105842;1253;60524;-55
2023/11/10 06:06:24;;;;;;;15.30;8.60;;;;;;;6.32;65.02;100989.64;109301;1253;64859;-57
2023/11/10 06:08:52;;;;;;;15.00;6.70;;;;;;;6.38;65.08;100992.63;109211;1254;61414;-55
2023/11/10 06:11:23;;;;;;;19.80;15.20;;;;;;;6.44;65.20;100985.01;107870;1257;63898;-57
2023/11/10 06:13:50;;;;;;;15.40;5.70;;;;;;;6.50;65.16;100983.81;109209;1253;58469;-59
2023/11/10 06:16:19;;;;;;;10.50;3.70;;;;;;;6.62;65.14;100983.17;109269;1252;58642;-60
2023/11/10 06:18:46;;;;;;;9.10;3.50;;;;;;;6.79;65.13;100982.96;109221;1253;65525;-61
2023/11/10 06:21:14;;;;;;;9.10;3.00;;;;;;;6.97;65.26;100981.25;109237;1252;61359;-60
2023/11/10 06:23:42;;;;;;;8.00;3.60;;;;;;;7.14;65.32;100982.94;109208;1253;63066;-60
2023/11/10 06:26:10;;;;;;;16.20;11.00;;;;;;;7.29;65.47;100986.13;109274;1253;58350;-58
2023/11/10 06:28:37;;;;;;;10.80;5.90;;;;;;;7.43;65.73;100987.11;106416;1251;60424;-60
2023/11/10 06:31:05;;;;;;;10.90;5.20;;;;;;;7.53;65.81;100984.08;107739;1257;64866;-60
2023/11/10 06:33:33;;;;;;;19.60;13.80;;;;;;;7.63;65.82;100984.04;105389;1257;61381;-66
2023/11/10 06:36:03;;;;;;;9.40;3.60;;;;;;;7.68;65.73;100979.18;105397;1256;62564;-60
2023/11/10 06:38:31;;;;;;;8.10;3.20;;;;;;;7.79;65.72;100981.52;105924;1253;60558;-61
2023/11/10 06:40:59;;;;;;;15.30;5.10;;;;;;;7.93;65.68;100983.98;105989;1257;60433;-61
2023/11/10 06:43:27;;;;;;;13.80;10.90;;;;;;;8.05;65.56;100980.85;106877;1251;65391;-67
2023/11/10 06:45:54;;;;;;;9.80;5.60;;;;;;;8.17;65.68;100979.11;105391;1257;60419;-55
2023/11/10 06:48:22;;;;;;;14.70;10.80;;;;;;;8.27;65.92;100976.91;105368;1254;62477;-63
2023/11/10 06:50:50;;;;;;;9.50;3.70;;;;;;;8.38;65.90;100973.80;105557;1258;60422;-65
2023/11/10 06:53:17;;;;;;;16.50;10.00;;;;;;;8.45;65.88;100972.88;106268;1254;60635;-63
2023/11/10 06:55:45;;;;;;;10.20;3.90;;;;;;;8.48;65.67;100971.29;105838;1251;65362;-60
2023/11/10 06:58:13;;;;;;;9.90;3.70;;;;;;;8.49;65.66;100967.03;105389;1256;60460;-67
2023/11/10 07:00:40;;;;;;;15.20;8.90;;;;;;;8.49;65.59;100964.39;105708;1251;63658;-59
2023/11/10 07:03:12;;;;;;;11.50;3.00;;;;;;;8.57;65.48;100964.97;106122;1253;63030;-59
2023/11/10 07:05:40;;;;;;;7.40;3.20;;;;;;;8.68;65.33;100963.05;107239;1252;60536;-61
2023/11/10 07:08:10;;;;;;;7.00;3.30;;;;;;;8.79;65.10;100964.29;106161;1256;64869;-63
2023/11/10 07:10:43;;;;;;;11.80;7.50;;;;;;;8.90;64.83;100963.77;105515;1257;71438;-64
2023/11/10 07:13:14;;;;;;;9.10;3.30;;;;;;;9.02;64.63;100960.23;105976;1253;74927;-58
2023/11/10 07:15:42;;;;;;;15.70;8.40;;;;;;;9.11;64.42;100960.34;106125;1253;60524;-66
2023/11/10 07:18:10;;;;;;;10.90;7.20;;;;;;;9.17;64.20;100963.77;105993;1252;60463;-65
2023/11/10 07:20:43;;;;;;;7.80;2.60;;;;;;;9.20;63.84;100964.27;105319;1253;64861;-59
2023/11/10 07:23:13;;;;;;;8.00;3.10;;;;;;;9.23;63.53;100961.29;106687;1257;60815;-62
2023/11/10 07:25:42;;;;;;;10.50;7.80;;;;;;;9.24;63.20;100961.77;106077;1254;65904;-60
2023/11/10 07:28:11;;;;;;;8.30;3.60;;;;;;;9.26;63.15;100965.80;106040;1253;60421;-60
2023/11/10 07:30:39;;;;;;;10.40;7.10;;;;;;;9.35;62.91;100959.30;106162;1253;60539;-61
2023/11/10 07:33:08;;;;;;;11.00;6.60;;;;;;;9.45;62.49;100954.76;106328;1252;75965;-60
2023/11/10 07:35:38;;;;;;;7.70;2.10;;;;;;;9.52;61.90;100952.74;105879;1256;60237;-63
2023/11/10 07:38:06;;;;;;;10.00;6.70;;;;;;;9.56;61.70;100947.91;106045;1252;62495;-58
2023/11/10 07:40:34;;;;;;;9.50;3.50;;;;;;;9.62;61.52;100944.02;107786;1253;60549;-59
2023/11/10 07:43:04;;;;;;;10.00;6.60;;;;;;;9.67;61.35;100942.45;106439;1253;60390;-59
2023/11/10 07:45:34;;;;;;;9.50;3.30;;;;;;;9.75;61.16;100940.19;106232;1256;64905;-59
2023/11/10 07:48:03;;;;;;;11.10;5.90;;;;;;;9.88;60.86;100938.05;105839;1257;62847;-59
2023/11/10 07:50:30;;;;;;;9.30;5.80;;;;;;;10.03;60.37;100941.24;105594;1253;62514;-64
2023/11/10 07:52:58;;;;;;;6.70;2.20;;;;;;;10.14;60.10;100943.14;106106;1256;60552;-67
2023/11/10 07:55:27;;;;;;;9.10;5.40;;;;;;;10.22;60.02;100944.70;106290;1253;60547;-61
2023/11/10 07:57:55;;;;;;;8.90;5.80;;;;;;;10.29;59.67;100942.30;106202;1253;65018;-60
2023/11/10 08:00:23;;;;;;;10.80;6.00;;;;;;;10.35;59.44;100940.50;105993;1253;61404;-57
2023/11/10 08:02:53;;;;;;;5.20;2.20;;;;;;;10.42;59.19;100936.16;105836;1253;62647;-59
2023/11/10 08:05:21;;;;;;;10.80;5.90;;;;;;;10.47;58.87;100935.56;105949;1254;60458;-60
2023/11/10 08:07:52;;;;;;;6.00;2.30;;;;;;;10.54;58.58;100938.64;106566;1251;60473;-60
2023/11/10 08:10:20;;;;;;;8.50;5.10;;;;;;;10.66;58.16;100939.17;105936;1253;63639;-55
2023/11/10 08:12:49;;;;;;;8.90;5.10;;;;;;;10.83;58.02;100935.88;105693;1254;71440;-60
2023/11/10 08:15:17;;;;;;;9.50;5.30;;;;;;;10.96;57.47;100932.26;106215;1252;72538;-69
2023/11/10 08:17:45;;;;;;;7.60;5.00;;;;;;;11.06;57.12;100930.54;106254;1257;60530;-61
2023/11/10 08:20:13;;;;;;;9.10;5.20;;;;;;;11.15;57.23;100935.10;106741;1252;60524;-61
2023/11/10 08:22:41;;;;;;;8.10;5.00;;;;;;;11.27;57.15;100932.50;106226;1251;63724;-63
2023/11/10 08:25:11;;;;;;;7.40;5.10;;;;;;;11.36;56.35;100932.88;106043;1257;60543;-62
2023/11/10 08:27:39;;;;;;;9.20;4.80;;;;;;;11.44;56.14;100932.10;107097;1257;62516;-61
2023/11/10 08:30:09;;;;;;;11.00;5.20;;;;;;;11.53;55.93;100928.22;105615;1253;60584;-65
2023/11/10 08:32:38;;;;;;;8.80;5.30;;;;;;;11.66;55.41;100928.66;107374;1252;60498;-66
2023/11/10 08:35:08;;;;;;;7.50;4.40;;;;;;;11.81;54.91;100924.36;106103;1256;75437;-61
2023/11/10 08:37:36;;;;;;;8.80;5.00;;;;;;;11.89;55.03;100929.02;106363;1253;63688;-63
2023/11/10 08:40:05;;;;;;;8.50;5.20;;;;;;;11.96;54.98;100923.64;106139;1253;66092;-64
2023/11/10 08:42:33;;;;;;;9.00;5.30;;;;;;;12.02;54.38;100924.02;106337;1256;60508;-66
2023/11/10 08:45:01;;;;;;;9.90;4.90;;;;;;;12.04;54.08;100926.84;106417;1254;62750;-54
2023/11/10 08:47:29;;;;;;;9.00;5.30;;;;;;;12.04;54.31;100921.95;109204;1251;63917;-61
2023/11/10 08:49:57;;;;;;;11.50;5.80;;;;;;;12.07;54.34;100916.98;109316;1252;63616;-63
2023/11/10 08:52:24;;;;;;;9.70;5.10;;;;;;;12.12;54.01;100914.67;109251;1251;74834;-59
2023/11/10 08:54:54;;;;;;;8.90;4.50;;;;;;;12.15;53.85;100915.30;109233;1253;62487;-64
2023/11/10 08:57:22;;;;;;;9.10;5.40;;;;;;;12.19;54.04;100909.71;109262;1251;58350;-63
2023/11/10 08:59:50;;;;;;;7.10;4.80;;;;;;;12.26;53.92;100902.48;109329;1254;67156;-61
2023/11/10 09:02:18;;;;;;;8.90;5.40;;;;;;;12.32;53.60;100902.72;106118;1256;61741;-64
2023/11/10 09:04:48;;;;;;;8.60;5.50;;;;;;;12.40;53.91;100894.51;105233;1254;73809;-65
2023/11/10 09:07:16;;;;;;;7.20;4.40;;;;;;;12.56;53.85;100889.56;106522;1252;61400;-62
2023/11/10 09:09:45;;;;;;;10.30;5.30;;;;;;;12.70;53.40;100885.80;105352;1256;60448;-60
2023/11/10 09:12:13;;;;;;;7.60;4.70;;;;;;;12.77;53.28;100877.79;106197;1253;63669;-62
2023/11/10 09:14:40;;;;;;;9.50;5.00;;;;;;;12.81;53.05;100875.88;106748;1253;61583;-61
2023/11/10 09:17:08;;;;;;;10.60;4.80;;;;;;;12.80;52.84;100880.34;105334;1256;62547;-58
2023/11/10 09:19:37;;;;;;;8.20;4.80;;;;;;;12.78;52.81;100875.63;105861;1253;62279;-60
2023/11/10 09:22:05;;;;;;;8.80;5.10;;;;;;;12.76;53.07;100876.61;106201;1253;60415;-58
2023/11/10 09:24:33;;;;;;;7.60;4.80;;;;;;;12.78;53.11;100874.04;105623;1257;63650;-63
2023/11/10 09:27:01;;;;;;;8.00;4.70;;;;;;;12.78;53.19;100873.27;105314;1256;60489;-58
2023/11/10 09:29:28;;;;;;;9.00;5.30;;;;;;;12.79;53.55;100872.70;105288;1253;72144;-58
2023/11/10 09:31:56;;;;;;;7.70;4.40;;;;;;;12.82;53.79;100869.70;105096;1253;60421;-60
2023/11/10 09:34:25;;;;;;;8.50;5.10;;;;;;;12.86;53.91;100866.16;107754;1251;60456;-60
2023/11/10 09:36:53;;;;;;;8.40;3.80;;;;;;;12.92;53.72;100860.73;105719;1255;76476;-60
2023/11/10 09:39:21;;;;;;;8.60;3.90;;;;;;;13.03;53.36;100857.77;105624;1253;72566;-59
2023/11/10 09:41:49;;;;;;;8.70;4.80;;;;;;;13.14;52.98;100854.85;106028;1256;74893;-62
2023/11/10 09:44:17;;;;;;;8.00;3.90;;;;;;;13.20;52.61;100856.31;105844;1253;61012;-59
2023/11/10 09:46:47;;;;;;;6.80;4.00;;;;;;;13.27;52.68;100853.33;105361;1254;62190;-60
2023/11/10 09:49:14;;;;;;;8.20;4.50;;;;;;;13.32;52.22;100847.41;105671;1257;67115;-61
2023/11/10 09:51:42;;;;;;;8.60;4.40;;;;;;;13.40;51.91;100845.34;105354;1257;62319;-58
2023/11/10 09:54:10;;;;;;;7.40;3.90;;;;;;;13.47;51.29;100840.38;106102;1251;74555;-59
2023/11/10 09:56:39;;;;;;;7.00;3.80;;;;;;;13.51;51.02;100838.59;105684;1253;60482;-59
2023/11/10 09:59:08;;;;;;;6.60;3.60;;;;;;;13.52;50.93;100835.84;106101;1252;62185;-60
2023/11/10 10:01:35;;;;;;;7.60;4.20;;;;;;;13.55;50.86;100831.73;106368;1253;63709;-59
2023/11/10 10:04:04;;;;;;;6.70;4.20;;;;;;;13.59;50.89;100827.84;106154;1253;62639;-59
2023/11/10 10:06:32;;;;;;;7.80;4.10;;;;;;;13.64;50.79;100825.55;105367;1253;75029;-58
2023/11/10 10:09:04;;;;;;;7.40;4.50;;;;;;;13.67;50.51;100822.39;106209;1257;61086;-59
2023/11/10 10:11:32;;;;;;;7.70;4.60;;;;;;;13.70;50.13;100818.45;106602;1256;62263;-61
2023/11/10 10:14:00;;;;;;;6.40;3.70;;;;;;;13.71;49.71;100818.73;105372;1253;66103;-63
2023/11/10 10:16:29;;;;;;;7.00;3.30;;;;;;;13.71;49.97;100820.11;105416;1253;63895;-61
2023/11/10 10:18:56;;;;;;;6.50;4.00;;;;;;;13.71;49.99;100807.62;105877;1253;63753;-62
2023/11/10 10:21:24;;;;;;;7.10;3.90;;;;;;;13.67;49.82;100811.64;106089;1253;60416;-66
2023/11/10 10:23:52;;;;;;;8.40;4.50;;;;;;;13.63;50.00;100808.98;103803;1253;3466477;-59
2023/11/10 10:37:41;;;;;;;7.50;4.50;;;;;;;13.74;51.02;100795.30;102568;1295;604441;-64
2023/11/10 10:40:11;;;;;;;6.90;3.70;;;;;;;14.27;50.15;100786.31;102728;1267;3437724;-63
2023/11/10 10:42:43;;;;;;;6.20;3.90;;;;;;;14.29;49.85;100786.30;105861;1267;59266;-68
2023/11/10 10:45:11;;;;;;;6.20;3.60;;;;;;;14.30;49.75;100783.52;106265;1267;66114;-60
2023/11/10 10:47:40;;;;;;;8.00;4.20;;;;;;;14.32;49.69;100777.60;105275;1266;60268;-61
2023/11/10 10:50:10;;;;;;;8.00;3.80;;;;;;;14.33;49.80;100772.58;104543;1267;63728;-61
2023/11/10 10:52:38;;;;;;;8.20;3.70;;;;;;;14.34;49.88;100775.09;104604;1267;59359;-61
2023/11/10 10:55:07;;;;;;;8.80;3.90;;;;;;;14.38;49.88;100773.02;105640;1267;58943;-61
2023/11/10 10:57:37;;;;;;;6.00;3.40;;;;;;;14.42;49.81;100770.36;105513;1269;74489;-63
2023/11/10 11:00:06;;;;;;;7.20;4.00;;;;;;;14.47;49.89;100765.31;105603;1269;61590;-61
2023/11/10 11:02:34;;;;;;;6.00;3.00;;;;;;;14.54;49.66;100765.05;104504;1267;62512;-59
2023/11/10 11:05:40;;;;;;;6.60;3.20;;;;;;;14.62;49.41;100764.14;104458;1269;59788;-61
2023/11/10 11:08:47;;;;;;;5.70;2.80;;;;;;;14.71;48.53;100759.23;107419;1267;61040;-61
2023/11/10 11:11:18;;;;;;;;;;;;;;;14.79;48.16;100756.81;108296;1264;65059;-60
2023/11/10 11:13:52;;;;;;;5.20;2.80;;;;;;;14.82;47.59;100758.95;105171;1264;60106;-60
2023/11/10 11:16:46;;;;;;;6.00;2.90;;;;;;;14.84;47.12;100760.38;104940;1267;63737;-63
2023/11/10 11:19:20;;;;;;;5.90;3.00;;;;;;;14.84;46.86;100756.44;107628;1260;60136;-61
2023/11/10 11:21:49;;;;;;;7.00;3.20;;;;;;;14.85;46.24;100753.52;105211;1266;59676;-60
2023/11/10 11:24:18;;;;;;;4.90;2.60;;;;;;;14.84;45.91;100755.21;105450;1263;64277;-61
2023/11/10 11:26:55;;;;;;;7.30;3.00;;;;;;;14.83;45.68;100756.77;106731;1260;61821;-63
2023/11/10 11:29:25;;;;;;;6.30;3.00;;;;;;;14.79;45.67;100752.75;106096;1260;73825;-61
2023/11/10 11:31:53;;;;;;;6.90;3.50;;;;;;;14.75;45.68;100754.64;105332;1260;59756;-62
2023/11/10 11:34:21;;;;;;;7.00;3.40;;;;;;;14.72;45.65;100752.66;104993;1260;59748;-62
2023/11/10 11:36:49;;;;;;;6.00;2.90;;;;;;;14.69;45.87;100752.39;105485;1263;64911;-63